createdAt,value
2023-11-01T00:03:57.700Z,98795.72
2023-11-01T00:09:01.212Z,98784.34
2023-11-01T00:14:06.382Z,98770.63
2023-11-01T00:19:09.888Z,98769.94
2023-11-01T00:24:13.173Z,98773.34
2023-11-01T00:29:17.787Z,98780.13
2023-11-01T00:34:20.890Z,98776.41
2023-11-01T00:39:24.213Z,98780.47
2023-11-01T00:44:29.156Z,98780.13
2023-11-01T00:49:32.263Z,98778.44
2023-11-01T00:54:35.679Z,98770.63
2023-11-01T00:59:40.490Z,98773.34
2023-11-01T01:04:46.401Z,98773.34
2023-11-01T01:09:49.844Z,98756.75
2023-11-01T01:14:54.614Z,98756.75
2023-11-01T01:19:57.690Z,98755.38
2023-11-01T01:25:00.874Z,98750.13
2023-11-01T01:30:05.880Z,98737.75
2023-11-01T01:35:09.201Z,98734.50
2023-11-01T01:40:13.674Z,98729.75
2023-11-01T01:45:18.124Z,98727.50
2023-11-01T01:50:21.577Z,98735.97
2023-11-01T01:55:26.666Z,98714.59
2023-11-01T02:00:33.406Z,98722.22
2023-11-01T02:05:36.780Z,98712.69
2023-11-01T02:10:39.899Z,98705.06
2023-11-01T02:15:45.463Z,98699.34
2023-11-01T02:20:50.096Z,98698.50
2023-11-01T02:25:56.897Z,98686.78
2023-11-01T02:31:00.007Z,98702.06
2023-11-01T02:36:03.504Z,98693.63
2023-11-01T02:41:07.984Z,98692.94
2023-11-01T02:46:11.096Z,98670.56
2023-11-01T02:51:14.243Z,98670.56
2023-11-01T02:56:22.723Z,98674.66
2023-11-01T03:01:27.459Z,98674.66
2023-11-01T03:06:30.765Z,98677.69
2023-11-01T03:11:35.785Z,98675.66
2023-11-01T03:16:39.621Z,98663.78
2023-11-01T03:21:43.959Z,98659.88
2023-11-01T03:26:48.401Z,98664.94
2023-11-01T03:31:52.055Z,98661.91
2023-11-01T03:36:55.580Z,98665.94
2023-11-01T03:42:00.379Z,98655.78
2023-11-01T03:47:04.566Z,98658.13
2023-11-01T03:52:07.816Z,98643.06
2023-11-01T03:57:12.765Z,98639.78
2023-11-01T04:02:15.993Z,98634.19
2023-11-01T04:07:19.101Z,98630.25
2023-11-01T04:12:23.602Z,98628.78
2023-11-01T04:17:26.771Z,98629.41
2023-11-01T04:22:30.466Z,98633.19
2023-11-01T04:27:40.766Z,98620.63
2023-11-01T04:32:44.758Z,98623.66
2023-11-01T04:37:47.908Z,98620.78
2023-11-01T04:42:52.341Z,98618.22
2023-11-01T04:47:55.522Z,98610.75
2023-11-01T04:52:59.653Z,98617.56
2023-11-01T04:58:04.129Z,98605.34
2023-11-01T05:03:07.303Z,98606.34
2023-11-01T05:08:10.445Z,98603.97
2023-11-01T05:13:15.073Z,98602.56
2023-11-01T05:18:20.108Z,98603.25
2023-11-01T05:23:23.656Z,98600.53
2023-11-01T05:28:28.158Z,98603.63
2023-11-01T05:33:32.677Z,98601.75
2023-11-01T05:38:36.144Z,98598.38
2023-11-01T05:43:41.847Z,98592.94
2023-11-01T05:48:44.930Z,98590.41
2023-11-01T05:53:48.288Z,98593.78
2023-11-01T05:58:54.076Z,98597.53
2023-11-01T06:04:01.622Z,98600.91
2023-11-01T06:09:04.835Z,98593.91
2023-11-01T06:14:09.616Z,98596.81
2023-11-01T06:19:12.773Z,98583.41
2023-11-01T06:24:15.954Z,98585.59
2023-11-01T06:29:20.434Z,98578.47
2023-11-01T06:34:23.655Z,98585.91
2023-11-01T06:39:26.790Z,98579.06
2023-11-01T06:44:34.472Z,98579.75
2023-11-01T06:49:39.116Z,98577.03
2023-11-01T06:54:44.370Z,98587.88
2023-11-01T06:59:49.014Z,98590.91
2023-11-01T07:04:52.198Z,98593.44
2023-11-01T07:09:55.312Z,98588.47
2023-11-01T07:14:59.750Z,98594.69
2023-11-01T07:20:03.351Z,98593.63
2023-11-01T07:25:06.703Z,98580.16
2023-11-01T07:30:12.031Z,98581.00
2023-11-01T07:35:15.163Z,98565.53
2023-11-01T07:40:18.585Z,98565.84
2023-11-01T07:45:25.549Z,98576.88
2023-11-01T07:50:28.983Z,98589.44
2023-11-01T07:55:32.234Z,98596.38
2023-11-01T08:00:37.073Z,98581.69
2023-11-01T08:05:40.477Z,98587.88
2023-11-01T08:10:44.072Z,98572.72
2023-11-01T08:15:48.550Z,98560.91
2023-11-01T08:20:54.614Z,98561.19
2023-11-01T08:25:57.839Z,98565.59
2023-11-01T08:31:02.741Z,98572.72
2023-11-01T08:36:06.826Z,98551.16
2023-11-01T08:41:10.436Z,98544.97
2023-11-01T08:46:16.255Z,98556.06
2023-11-01T08:51:20.241Z,98544.97
2023-11-01T08:56:23.864Z,98541.41
2023-11-01T09:01:29.220Z,98543.59
2023-11-01T09:06:33.774Z,98535.22
2023-11-01T09:11:37.175Z,98528.09
2023-11-01T09:16:42.213Z,98534.84
2023-11-01T09:21:45.350Z,98539.53
2023-11-01T09:26:49.192Z,98530.25
2023-11-01T09:31:53.726Z,98525.56
2023-11-01T09:36:57.124Z,98521.69
2023-11-01T09:42:04.932Z,98520.88
2023-11-01T09:47:09.577Z,98516.88
2023-11-01T09:52:13.414Z,98503.66
2023-11-01T09:57:17.764Z,98501.34
2023-11-01T10:02:22.264Z,98499.47
2023-11-01T10:07:25.392Z,98506.81
2023-11-01T10:12:29.946Z,98507.25
2023-11-01T10:17:35.244Z,98504.88
2023-11-01T10:22:38.886Z,98492.44
2023-11-01T10:27:42.456Z,98480.44
2023-11-01T10:32:57.221Z,98476.00
2023-11-01T10:38:02.378Z,98460.41
2023-11-01T10:43:05.537Z,98455.44
2023-11-01T10:48:10.180Z,98452.69
2023-11-01T10:53:14.377Z,98448.94
2023-11-01T10:58:17.758Z,98444.00
2023-11-01T11:03:33.067Z,98450.47
2023-11-01T11:08:36.276Z,98426.94
2023-11-01T11:13:39.468Z,98430.53
2023-11-01T11:18:57.958Z,98415.16
2023-11-01T11:24:01.314Z,98405.09
2023-11-01T11:29:06.354Z,98397.56
2023-11-01T11:34:14.976Z,98385.41
2023-11-01T11:39:18.138Z,98389.56
2023-11-01T11:44:21.333Z,98379.50
2023-11-01T11:49:27.688Z,98364.41
2023-11-01T11:54:32.592Z,98368.00
2023-11-01T11:59:36.709Z,98354.75
2023-11-01T12:04:42.065Z,98348.44
2023-11-01T12:09:49.049Z,98342.16
2023-11-01T12:14:59.134Z,98341.50
2023-11-01T12:20:03.827Z,98306.88
2023-11-01T12:25:09.602Z,98321.59
2023-11-01T12:30:22.619Z,98306.88
2023-11-01T12:35:27.124Z,98297.22
2023-11-01T12:40:33.094Z,98285.03
2023-11-01T12:45:36.607Z,98272.84
2023-11-01T12:50:41.706Z,98276.22
2023-11-01T12:55:45.198Z,98273.03
2023-11-01T13:00:48.523Z,98261.50
2023-11-01T13:05:53.225Z,98246.78
2023-11-01T13:10:56.341Z,98242.97
2023-11-01T13:15:59.467Z,98236.03
2023-11-01T13:21:04.225Z,98241.75
2023-11-01T13:26:08.995Z,98234.59
2023-11-01T13:31:12.124Z,98233.97
2023-11-01T13:36:16.778Z,98214.22
2023-11-01T13:41:19.955Z,98219.91
2023-11-01T13:46:23.825Z,98227.91
2023-11-01T13:51:28.617Z,98221.66
2023-11-01T13:56:31.792Z,98224.78
2023-11-01T14:01:35.575Z,98212.41
2023-11-01T14:06:40.828Z,98192.47
2023-11-01T14:11:46.019Z,98188.50
2023-11-01T14:16:49.934Z,98201.09
2023-11-01T14:21:54.385Z,98191.88
2023-11-01T14:26:57.494Z,98179.69
2023-11-01T14:32:00.608Z,98165.66
2023-11-01T14:37:05.464Z,98173.81
2023-11-01T14:42:09.780Z,98160.75
2023-11-01T14:47:12.911Z,98158.66
2023-11-01T14:52:17.357Z,98141.66
2023-11-01T14:57:20.474Z,98137.66
2023-11-01T15:02:24.595Z,98121.69
2023-11-01T15:07:29.560Z,98122.13
2023-11-01T15:12:33.074Z,98116.19
2023-11-01T15:17:36.295Z,98110.94
2023-11-01T15:22:41.936Z,98112.19
2023-11-01T15:27:45.365Z,98106.06
2023-11-01T15:32:48.566Z,98114.00
2023-11-01T15:37:53.147Z,98108.97
2023-11-01T15:42:56.383Z,98112.66
2023-11-01T15:47:59.570Z,98096.97
2023-11-01T15:53:04.601Z,98086.25
2023-11-01T15:58:07.773Z,98098.16
2023-11-01T16:03:14.516Z,98099.19
2023-11-01T16:08:21.443Z,98099.22
2023-11-01T16:13:25.669Z,98098.00
2023-11-01T16:18:28.927Z,98091.34
2023-11-01T16:23:33.417Z,98104.31
2023-11-01T16:28:36.487Z,98106.19
2023-11-01T16:33:39.627Z,98110.56
2023-11-01T16:38:44.291Z,98105.94
2023-11-01T16:43:47.445Z,98110.53
2023-11-01T16:48:50.629Z,98103.19
2023-11-01T16:53:55.165Z,98104.72
2023-11-01T16:58:58.378Z,98100.72
2023-11-01T17:04:01.672Z,98100.16
2023-11-01T17:09:06.811Z,98094.59
2023-11-01T17:14:09.947Z,98098.50
2023-11-01T17:19:14.820Z,98097.75
2023-11-01T17:24:27.568Z,98105.97
2023-11-01T17:29:32.318Z,98101.94
2023-11-01T17:34:35.773Z,98088.84
2023-11-01T17:39:41.591Z,98101.78
2023-11-01T17:44:47.964Z,98106.63
2023-11-01T17:49:56.380Z,98091.13
2023-11-01T17:55:02.740Z,98079.84
2023-11-01T18:00:07.741Z,98075.00
2023-11-01T18:05:30.708Z,98082.06
2023-11-01T18:10:41.035Z,98088.47
2023-11-01T18:15:44.439Z,98072.75
2023-11-01T18:20:47.558Z,98076.06
2023-11-01T18:26:11.901Z,98095.47
2023-11-01T18:31:19.931Z,98080.75
2023-11-01T18:36:25.797Z,98075.16
2023-11-01T18:41:32.744Z,98081.09
2023-11-01T18:46:37.413Z,98052.78
2023-11-01T18:52:09.269Z,98052.56
2023-11-01T18:57:17.770Z,98037.72
2023-11-01T19:02:58.222Z,98029.41
2023-11-01T19:08:01.707Z,98030.75
2023-11-01T19:13:06.188Z,98022.34
2023-11-01T19:18:13.813Z,98018.59
2023-11-01T19:23:18.264Z,98012.31
2023-11-01T19:28:23.153Z,98010.91
2023-11-01T19:33:31.996Z,98037.44
2023-11-01T19:38:36.897Z,98034.72
2023-11-01T19:43:41.704Z,98024.81
2023-11-01T19:48:45.762Z,98032.16
2023-11-01T19:53:49.524Z,98041.75
2023-11-01T19:58:54.110Z,98035.06
2023-11-01T20:03:57.237Z,98024.59
2023-11-01T20:09:00.772Z,98029.78
2023-11-01T20:14:05.384Z,98003.59
2023-11-01T20:19:08.479Z,98008.94
2023-11-01T20:24:12.104Z,97994.38
2023-11-01T20:29:16.543Z,98021.84
2023-11-01T20:34:19.973Z,98019.53
2023-11-01T20:39:23.188Z,98029.59
2023-11-01T20:44:28.120Z,98016.47
2023-11-01T20:49:31.277Z,98006.56
2023-11-01T20:54:34.822Z,98005.28
2023-11-01T20:59:39.821Z,98004.78
2023-11-01T21:04:43.179Z,98007.53
2023-11-01T21:09:46.909Z,98010.34
2023-11-01T21:14:51.617Z,98008.97
2023-11-01T21:19:55.014Z,98001.31
2023-11-01T21:24:58.309Z,97999.50
2023-11-01T21:30:03.785Z,97973.00
2023-11-01T21:35:08.148Z,97967.63
2023-11-01T21:40:12.406Z,97970.84
2023-11-01T21:45:18.526Z,97977.41
2023-11-01T21:50:48.321Z,97960.81
2023-11-01T21:56:02.682Z,97964.31
2023-11-01T22:01:08.692Z,97961.53
2023-11-01T22:06:14.051Z,97937.78
2023-11-01T22:11:17.290Z,97934.41
2023-11-01T22:16:27.910Z,97926.09
2023-11-01T22:21:35.395Z,97910.00
2023-11-01T22:26:38.746Z,97897.16
2023-11-01T22:31:52.096Z,97896.13
2023-11-01T22:36:55.272Z,97898.50
2023-11-01T22:41:58.938Z,97901.03
2023-11-01T22:47:05.315Z,97891.84
2023-11-01T22:52:09.361Z,97902.78
2023-11-01T22:57:13.312Z,97889.28
2023-11-01T23:02:18.169Z,97877.84
2023-11-01T23:07:21.449Z,97862.06
2023-11-01T23:12:26.694Z,97867.91
2023-11-01T23:17:31.522Z,97845.78
2023-11-01T23:22:35.596Z,97843.91
2023-11-01T23:27:39.429Z,97833.06
2023-11-01T23:32:44.741Z,97825.78
2023-11-01T23:37:47.846Z,97802.84
2023-11-01T23:42:51.625Z,97787.03
2023-11-01T23:48:03.548Z,97783.47
2023-11-01T23:53:09.326Z,97773.28
2023-11-01T23:58:12.985Z,97779.50
